Time;durP1;ratioP1;P1;durP2;ratioP2;P2;SDS_P1;SDS_P2;PMS_P1;PMS_P2;Temp;Humidity;BMP_temperature;BMP_pressure;BME280_temperature;BME280_humidity;BME280_pressure;Samples;Min_cycle;Max_cycle;Signal;HPM_P1;HPM_P2
2023/03/26 00:03:02;;;;;;;10.40;5.70;;;;;;;;;;10305774;28;20110;-65
2023/03/26 00:08:01;;;;;;;7.70;5.95;;;;;;;;;;10298278;28;20057;-65
2023/03/26 00:13:01;;;;;;;6.07;4.28;;;;;;;;;;10291479;28;20065;-65
2023/03/26 00:17:59;;;;;;;6.43;5.38;;;;;;;;;;10293793;28;20061;-65
2023/03/26 00:23:00;;;;;;;7.60;3.95;;;;;;;;;;10291875;28;20068;-65
2023/03/26 00:27:58;;;;;;;9.80;6.95;;;;;;;;;;10292288;28;20064;-65
2023/03/26 00:33:00;;;;;;;5.07;4.55;;;;;;;;;;10294760;28;20072;-65
2023/03/26 00:37:58;;;;;;;11.15;7.35;;;;;;;;;;10291630;28;20084;-65
2023/03/26 00:42:57;;;;;;;18.90;10.25;;;;;;;;;;10294246;28;20068;-66
2023/03/26 00:47:55;;;;;;;12.00;7.80;;;;;;;;;;10289489;28;20072;-65
2023/03/26 00:52:54;;;;;;;6.35;4.80;;;;;;;;;;10291974;28;20068;-66
2023/03/26 00:57:54;;;;;;;5.45;4.57;;;;;;;;;;10290087;28;20079;-66
2023/03/26 01:02:54;;;;;;;4.85;4.35;;;;;;;;;;10291732;28;20064;-65
2023/03/26 01:07:53;;;;;;;6.05;4.30;;;;;;;;;;10292117;28;20076;-65
2023/03/26 01:12:52;;;;;;;5.50;4.68;;;;;;;;;;10293272;28;20063;-66
2023/03/26 01:17:50;;;;;;;5.78;4.35;;;;;;;;;;10291073;28;20075;-65
2023/03/26 01:22:51;;;;;;;10.80;6.45;;;;;;;;;;10290364;28;20076;-65
2023/03/26 01:27:51;;;;;;;4.78;3.17;;;;;;;;;;10299875;28;20421;-66
2023/03/26 01:32:54;;;;;;;2.55;2.35;;;;;;;;;;10294092;28;20048;-66
2023/03/26 01:38:09;;;;;;;5.00;2.20;;;;;;;;;;10287205;28;20544;-65
2023/03/26 01:43:07;;;;;;;;;;;;;;;;;;10289422;28;20075;-65
2023/03/26 01:48:07;;;;;;;3.22;2.20;;;;;;;;;;10293970;28;19952;-66
2023/03/26 01:53:06;;;;;;;2.30;2.10;;;;;;;;;;10291280;28;20071;-66
2023/03/26 01:58:08;;;;;;;3.53;2.20;;;;;;;;;;10290070;28;20071;-66
2023/03/26 02:03:16;;;;;;;2.60;2.40;;;;;;;;;;10285874;28;20069;-66
2023/03/26 02:08:19;;;;;;;2.30;2.10;;;;;;;;;;10290674;28;20069;-66
2023/03/26 02:13:19;;;;;;;2.88;2.58;;;;;;;;;;10289665;28;20086;-66
2023/03/26 02:18:22;;;;;;;4.72;3.75;;;;;;;;;;10289142;28;20068;-66
2023/03/26 02:23:21;;;;;;;6.87;3.77;;;;;;;;;;10291379;28;20068;-66
2023/03/26 02:28:19;;;;;;;3.97;2.80;;;;;;;;;;10298502;28;20077;-66
2023/03/26 02:33:20;;;;;;;3.38;3.08;;;;;;;;;;10288134;28;20068;-66
2023/03/26 02:38:18;;;;;;;3.45;2.95;;;;;;;;;;10291314;28;20084;-66
2023/03/26 02:43:17;;;;;;;6.13;3.80;;;;;;;;;;10288791;28;20072;-65
2023/03/26 02:48:15;;;;;;;5.38;3.28;;;;;;;;;;10288714;28;20073;-65
2023/03/26 02:53:28;;;;;;;3.00;2.70;;;;;;;;;;10288261;28;20092;-65
2023/03/26 02:58:45;;;;;;;3.65;3.35;;;;;;;;;;10299813;28;20071;-65
2023/03/26 03:03:46;;;;;;;5.50;3.90;;;;;;;;;;10280339;28;20080;-65
2023/03/26 03:08:56;;;;;;;5.60;3.28;;;;;;;;;;10295693;28;20492;-65
2023/03/26 03:14:07;;;;;;;5.10;3.58;;;;;;;;;;10298470;28;20085;-65
2023/03/26 03:19:05;;;;;;;4.45;3.30;;;;;;;;;;10293420;28;20515;-65
2023/03/26 03:24:10;;;;;;;4.03;3.47;;;;;;;;;;10288572;28;20103;-65
2023/03/26 03:29:14;;;;;;;4.18;3.10;;;;;;;;;;10285948;28;20084;-66
2023/03/26 03:34:13;;;;;;;3.63;3.28;;;;;;;;;;10295570;28;20040;-64
2023/03/26 03:39:18;;;;;;;5.57;3.33;;;;;;;;;;10290630;28;20088;-64
2023/03/26 03:44:16;;;;;;;3.90;3.55;;;;;;;;;;10292802;28;20512;-66
2023/03/26 03:49:16;;;;;;;4.82;3.13;;;;;;;;;;10296967;28;20069;-65
2023/03/26 03:54:14;;;;;;;7.68;3.88;;;;;;;;;;10294098;28;20072;-66
2023/03/26 03:59:16;;;;;;;4.57;3.80;;;;;;;;;;10301300;28;20064;-64
2023/03/26 04:04:15;;;;;;;5.22;3.50;;;;;;;;;;10300080;28;20484;-65
2023/03/26 04:09:39;;;;;;;3.53;3.20;;;;;;;;;;10294222;28;20075;-65
2023/03/26 04:14:46;;;;;;;3.33;3.03;;;;;;;;;;10293082;28;20048;-65
2023/03/26 04:19:47;;;;;;;3.25;2.95;;;;;;;;;;10294948;28;20056;-65
2023/03/26 04:24:47;;;;;;;5.00;3.50;;;;;;;;;;10295747;28;20501;-66
2023/03/26 04:30:05;;;;;;;8.98;6.50;;;;;;;;;;10294408;28;20076;-65
2023/03/26 04:35:05;;;;;;;13.00;11.57;;;;;;;;;;10291062;28;20099;-66
2023/03/26 04:40:09;;;;;;;13.02;7.55;;;;;;;;;;10289340;28;20087;-65
2023/03/26 04:45:14;;;;;;;7.30;6.38;;;;;;;;;;10295257;28;20136;-66
2023/03/26 04:50:15;;;;;;;5.40;4.70;;;;;;;;;;10292970;28;20064;-65
2023/03/26 04:55:19;;;;;;;5.97;5.07;;;;;;;;;;10293116;28;20440;-65
2023/03/26 05:00:24;;;;;;;11.18;7.82;;;;;;;;;;10301042;28;20053;-66
2023/03/26 05:05:26;;;;;;;;;;;;;;;;;;10295108;28;20085;-66
2023/03/26 05:10:27;;;;;;;9.27;8.30;;;;;;;;;;10290232;28;19982;-66
2023/03/26 05:15:34;;;;;;;38.17;27.20;;;;;;;;;;10290698;28;20053;-66
2023/03/26 05:20:48;;;;;;;27.88;19.52;;;;;;;;;;10286008;28;20069;-65
2023/03/26 05:25:47;;;;;;;17.25;11.85;;;;;;;;;;10284396;28;20057;-65
2023/03/26 05:30:49;;;;;;;14.35;9.30;;;;;;;;;;10293030;28;20092;-65
2023/03/26 05:35:58;;;;;;;13.10;9.75;;;;;;;;;;10289660;28;20103;-66
2023/03/26 05:41:00;;;;;;;6.93;4.80;;;;;;;;;;10290024;28;20076;-65
2023/03/26 05:46:00;;;;;;;16.20;9.27;;;;;;;;;;10286636;28;20080;-65
2023/03/26 05:51:01;;;;;;;26.15;17.17;;;;;;;;;;10292098;28;20041;-66
2023/03/26 05:56:03;;;;;;;17.25;11.45;;;;;;;;;;10292314;28;20087;-65
2023/03/26 06:01:21;;;;;;;39.20;22.80;;;;;;;;;;10291845;28;20076;-66
2023/03/26 06:06:38;;;;;;;58.05;30.17;;;;;;;;;;10288588;28;20072;-66
2023/03/26 06:11:37;;;;;;;45.17;26.45;;;;;;;;;;10290761;28;20079;-66
2023/03/26 06:16:38;;;;;;;29.15;22.73;;;;;;;;;;10296660;28;20068;-66
2023/03/26 06:21:46;;;;;;;38.58;25.67;;;;;;;;;;10289689;28;20094;-66
2023/03/26 06:26:50;;;;;;;21.20;15.43;;;;;;;;;;10283009;28;20077;-65
2023/03/26 06:32:12;;;;;;;19.52;11.40;;;;;;;;;;10287728;28;20522;-65
2023/03/26 06:37:37;;;;;;;16.13;11.60;;;;;;;;;;10285285;28;20537;-65
2023/03/26 06:42:36;;;;;;;9.27;8.38;;;;;;;;;;10289288;28;20167;-65
2023/03/26 06:48:05;;;;;;;35.45;25.25;;;;;;;;;;10303687;28;20088;-65
2023/03/26 06:53:16;;;;;;;10.23;7.43;;;;;;;;;;10294924;28;20052;-65
2023/03/26 06:58:37;;;;;;;9.55;4.63;;;;;;;;;;10292112;28;20077;-65
2023/03/26 07:03:55;;;;;;;11.43;6.82;;;;;;;;;;10300345;28;20080;-65
2023/03/26 07:09:15;;;;;;;4.57;3.70;;;;;;;;;;10298744;28;20498;-65
2023/03/26 07:14:40;;;;;;;5.30;3.97;;;;;;;;;;10288805;28;20489;-64
2023/03/26 07:19:51;;;;;;;7.07;4.50;;;;;;;;;;10294509;28;20088;-64
2023/03/26 07:24:53;;;;;;;11.32;7.47;;;;;;;;;;10297666;28;20286;-65
2023/03/26 07:30:17;;;;;;;14.25;7.50;;;;;;;;;;10300652;28;20085;-65
2023/03/26 07:35:45;;;;;;;4.68;3.20;;;;;;;;;;10295191;28;20064;-66
2023/03/26 07:41:00;;;;;;;5.57;3.50;;;;;;;;;;10302262;28;20092;-66
2023/03/26 07:46:35;;;;;;;9.30;4.90;;;;;;;;;;10296949;28;20072;-66
2023/03/26 07:51:54;;;;;;;10.13;5.38;;;;;;;;;;10295338;28;20082;-66
2023/03/26 07:57:20;;;;;;;5.10;4.13;;;;;;;;;;10299514;28;20695;-65
2023/03/26 08:02:41;;;;;;;6.43;3.85;;;;;;;;;;10303022;28;20115;-64
2023/03/26 08:08:19;;;;;;;3.70;3.38;;;;;;;;;;10277419;28;20475;-65
2023/03/26 08:14:00;;;;;;;3.35;3.05;;;;;;;;;;10299102;28;20060;-66
2023/03/26 08:19:04;;;;;;;21.25;6.75;;;;;;;;;;10287699;28;20055;-65
2023/03/26 08:24:07;;;;;;;5.63;3.10;;;;;;;;;;10294015;28;20076;-64
2023/03/26 08:29:10;;;;;;;12.13;7.97;;;;;;;;;;10294880;28;20060;-65
2023/03/26 08:34:10;;;;;;;8.27;2.85;;;;;;;;;;10291418;28;20064;-65
2023/03/26 08:39:10;;;;;;;7.05;4.32;;;;;;;;;;10290341;28;20083;-65
2023/03/26 08:44:26;;;;;;;11.15;8.02;;;;;;;;;;10299245;28;20080;-64
2023/03/26 08:49:34;;;;;;;25.85;13.98;;;;;;;;;;10289733;28;20063;-65
2023/03/26 08:54:47;;;;;;;4.80;4.30;;;;;;;;;;10293490;28;20080;-64
2023/03/26 09:00:05;;;;;;;4.18;2.55;;;;;;;;;;10285703;28;20072;-65
2023/03/26 09:05:20;;;;;;;5.97;3.20;;;;;;;;;;10289865;28;20079;-66
2023/03/26 09:10:31;;;;;;;3.97;3.45;;;;;;;;;;10292424;28;20520;-65
2023/03/26 09:16:04;;;;;;;6.22;5.10;;;;;;;;;;10291504;28;20544;-66
2023/03/26 09:21:12;;;;;;;11.30;5.40;;;;;;;;;;10288550;28;20080;-65
2023/03/26 09:26:28;;;;;;;7.68;2.50;;;;;;;;;;10305219;28;20072;-66
2023/03/26 09:31:41;;;;;;;3.00;2.58;;;;;;;;;;10291938;28;20068;-65
2023/03/26 09:36:52;;;;;;;6.88;2.53;;;;;;;;;;10259219;28;20076;-64
2023/03/26 09:41:59;;;;;;;2.30;1.73;;;;;;;;;;10287780;28;20079;-64
2023/03/26 09:47:11;;;;;;;3.60;2.45;;;;;;;;;;10290428;28;20480;-63
2023/03/26 09:52:21;;;;;;;10.23;5.00;;;;;;;;;;10289683;28;20559;-64
2023/03/26 09:57:26;;;;;;;3.60;2.33;;;;;;;;;;10291845;28;20060;-63
2023/03/26 10:02:42;;;;;;;3.28;2.40;;;;;;;;;;10288691;28;21271;-64
2023/03/26 10:08:02;;;;;;;3.38;3.00;;;;;;;;;;10291221;28;20114;-63
2023/03/26 10:13:05;;;;;;;3.80;2.72;;;;;;;;;;10289386;28;20068;-64
2023/03/26 10:18:17;;;;;;;4.65;3.95;;;;;;;;;;10282947;28;20513;-64
2023/03/26 10:23:46;;;;;;;3.28;2.88;;;;;;;;;;10287840;28;20082;-64
2023/03/26 10:29:03;;;;;;;6.97;4.72;;;;;;;;;;10287575;28;20494;-64
2023/03/26 10:34:05;;;;;;;5.00;3.92;;;;;;;;;;10308021;28;20069;-64
2023/03/26 10:39:19;;;;;;;6.95;4.03;;;;;;;;;;10293838;28;20076;-64
2023/03/26 10:44:54;;;;;;;7.45;3.22;;;;;;;;;;10262491;28;20095;-64
2023/03/26 10:50:10;;;;;;;4.80;3.70;;;;;;;;;;10284193;28;20091;-64
2023/03/26 10:55:11;;;;;;;8.05;3.22;;;;;;;;;;10277611;28;20080;-64
2023/03/26 11:00:30;;;;;;;7.55;3.75;;;;;;;;;;10287622;28;20079;-64
2023/03/26 11:05:39;;;;;;;5.38;4.68;;;;;;;;;;10288041;28;20085;-64
2023/03/26 11:10:43;;;;;;;5.20;3.08;;;;;;;;;;10297716;28;20083;-64
2023/03/26 11:15:44;;;;;;;7.57;2.70;;;;;;;;;;10291275;28;20076;-64
2023/03/26 11:20:46;;;;;;;3.15;2.33;;;;;;;;;;10292395;28;20056;-66
2023/03/26 11:25:57;;;;;;;3.90;3.03;;;;;;;;;;10290181;28;20087;-65
2023/03/26 11:31:01;;;;;;;6.78;3.70;;;;;;;;;;10292722;28;20173;-64
2023/03/26 11:36:02;;;;;;;3.97;3.55;;;;;;;;;;10293270;28;20526;-65
2023/03/26 11:41:02;;;;;;;5.63;4.60;;;;;;;;;;10292746;28;20079;-64
2023/03/26 11:46:28;;;;;;;3.90;3.50;;;;;;;;;;10298220;28;20122;-65
2023/03/26 11:51:31;;;;;;;4.05;2.25;;;;;;;;;;10297627;28;20045;-64
2023/03/26 11:56:32;;;;;;;4.00;2.35;;;;;;;;;;10290325;28;20081;-63
2023/03/26 12:01:42;;;;;;;3.97;2.33;;;;;;;;;;10295121;28;20081;-64
2023/03/26 12:06:50;;;;;;;3.92;2.50;;;;;;;;;;10288651;28;20497;-64
2023/03/26 12:11:50;;;;;;;2.42;2.22;;;;;;;;;;10290938;28;20075;-64
2023/03/26 12:17:00;;;;;;;4.07;2.45;;;;;;;;;;10310047;28;20079;-65
2023/03/26 12:21:58;;;;;;;6.47;1.90;;;;;;;;;;10289362;28;20158;-64
2023/03/26 12:27:00;;;;;;;2.03;1.77;;;;;;;;;;10295908;28;20076;-64
2023/03/26 12:32:04;;;;;;;2.40;2.15;;;;;;;;;;10288124;28;20450;-64
2023/03/26 12:37:06;;;;;;;3.03;2.13;;;;;;;;;;10287170;28;20069;-64
2023/03/26 12:42:06;;;;;;;4.50;1.92;;;;;;;;;;10297042;28;20080;-63
2023/03/26 12:47:28;;;;;;;3.90;1.80;;;;;;;;;;10292348;28;20458;-64
2023/03/26 12:52:51;;;;;;;2.42;2.13;;;;;;;;;;10292633;28;20096;-64
2023/03/26 12:57:52;;;;;;;2.63;2.28;;;;;;;;;;10294052;28;20072;-65
2023/03/26 13:03:01;;;;;;;2.67;2.03;;;;;;;;;;10292121;28;20079;-65
2023/03/26 13:08:12;;;;;;;2.15;1.95;;;;;;;;;;10288439;28;20076;-65
2023/03/26 13:13:16;;;;;;;3.17;2.53;;;;;;;;;;10293271;28;20417;-65
2023/03/26 13:18:22;;;;;;;2.40;1.98;;;;;;;;;;10290327;28;20072;-65
2023/03/26 13:23:26;;;;;;;3.53;2.03;;;;;;;;;;10288783;28;20075;-65
2023/03/26 13:28:30;;;;;;;6.72;2.10;;;;;;;;;;10279933;28;20064;-65
2023/03/26 13:33:39;;;;;;;8.93;3.58;;;;;;;;;;10295545;28;20489;-65
2023/03/26 13:38:42;;;;;;;4.32;2.42;;;;;;;;;;10292275;28;20083;-65
2023/03/26 13:44:00;;;;;;;4.00;1.80;;;;;;;;;;10288890;28;20079;-65
2023/03/26 13:49:02;;;;;;;1.88;1.77;;;;;;;;;;10281562;28;20068;-65
2023/03/26 13:54:03;;;;;;;3.38;2.05;;;;;;;;;;10282205;28;20495;-65
2023/03/26 13:59:03;;;;;;;3.53;2.65;;;;;;;;;;10285915;28;20069;-65
2023/03/26 14:04:06;;;;;;;6.18;3.28;;;;;;;;;;10288163;28;20434;-66
2023/03/26 14:09:07;;;;;;;2.40;2.20;;;;;;;;;;10288628;28;20493;-65
2023/03/26 14:14:07;;;;;;;3.22;1.75;;;;;;;;;;10289337;28;20083;-64
2023/03/26 14:19:17;;;;;;;9.38;3.00;;;;;;;;;;10286775;28;20072;-64
2023/03/26 14:24:32;;;;;;;2.42;2.00;;;;;;;;;;10286750;28;20445;-64
2023/03/26 14:29:31;;;;;;;2.80;1.20;;;;;;;;;;10292647;28;20072;-64
2023/03/26 14:34:45;;;;;;;24.55;14.65;;;;;;;;;;10286819;28;20064;-64
2023/03/26 14:39:52;;;;;;;16.03;13.30;;;;;;;;;;10288216;28;20459;-64
2023/03/26 14:45:09;;;;;;;14.02;12.38;;;;;;;;;;10286141;28;20075;-64
2023/03/26 14:50:30;;;;;;;41.72;30.40;;;;;;;;;;10288179;28;20618;-63
2023/03/26 14:55:47;;;;;;;17.25;9.35;;;;;;;;;;10289924;28;20088;-63
2023/03/26 15:01:06;;;;;;;6.07;4.53;;;;;;;;;;10287570;28;20087;-63
2023/03/26 15:06:28;;;;;;;12.32;9.43;;;;;;;;;;10261416;28;20080;-64
2023/03/26 15:11:31;;;;;;;5.53;3.88;;;;;;;;;;10273447;28;20087;-64
2023/03/26 15:16:39;;;;;;;7.25;6.53;;;;;;;;;;10291426;28;20084;-63
2023/03/26 15:21:54;;;;;;;5.45;3.80;;;;;;;;;;10288359;28;20595;-64
2023/03/26 15:26:52;;;;;;;;;;;;;;;;;;10290349;28;20084;-64
2023/03/26 15:32:04;;;;;;;14.35;12.88;;;;;;;;;;10284087;28;20401;-64
2023/03/26 15:37:18;;;;;;;12.73;11.10;;;;;;;;;;10282581;28;20049;-64
2023/03/26 15:42:19;;;;;;;10.20;7.22;;;;;;;;;;10289781;28;20430;-65
2023/03/26 15:47:30;;;;;;;22.15;16.75;;;;;;;;;;10292187;28;20075;-64
2023/03/26 15:52:33;;;;;;;29.65;21.67;;;;;;;;;;10294761;28;20072;-64
2023/03/26 15:57:33;;;;;;;29.83;18.50;;;;;;;;;;10295394;28;20075;-64
2023/03/26 16:02:40;;;;;;;32.03;22.23;;;;;;;;;;10295984;28;20076;-66
2023/03/26 16:07:47;;;;;;;15.27;11.93;;;;;;;;;;10295172;28;20088;-64
2023/03/26 16:12:46;;;;;;;35.60;22.42;;;;;;;;;;10295273;28;20075;-65
2023/03/26 16:18:03;;;;;;;14.10;10.93;;;;;;;;;;10294976;28;20114;-64
2023/03/26 16:23:05;;;;;;;11.27;8.23;;;;;;;;;;10293749;28;20272;-64
2023/03/26 16:28:22;;;;;;;9.10;5.18;;;;;;;;;;10294567;28;20072;-64
2023/03/26 16:33:23;;;;;;;9.32;8.32;;;;;;;;;;10292381;28;20557;-64
2023/03/26 16:38:26;;;;;;;9.05;6.18;;;;;;;;;;10301204;28;20088;-65
2023/03/26 16:43:34;;;;;;;11.80;7.25;;;;;;;;;;10293589;28;20067;-65
2023/03/26 16:48:36;;;;;;;5.78;4.18;;;;;;;;;;10293525;28;20072;-65
2023/03/26 16:53:40;;;;;;;8.93;7.03;;;;;;;;;;10298056;28;20041;-64
2023/03/26 16:58:46;;;;;;;44.47;21.30;;;;;;;;;;10290631;28;20072;-63
2023/03/26 17:03:49;;;;;;;39.35;24.02;;;;;;;;;;10294152;28;20061;-64
2023/03/26 17:08:54;;;;;;;17.67;13.70;;;;;;;;;;10293360;28;20083;-64
2023/03/26 17:14:02;;;;;;;15.57;11.00;;;;;;;;;;10293139;28;20068;-66
2023/03/26 17:19:04;;;;;;;13.93;9.35;;;;;;;;;;10291761;28;20071;-64
2023/03/26 17:24:10;;;;;;;14.52;11.07;;;;;;;;;;10289797;28;20079;-65
2023/03/26 17:29:30;;;;;;;14.77;10.52;;;;;;;;;;10295073;28;20087;-64
2023/03/26 17:34:32;;;;;;;12.10;7.28;;;;;;;;;;10285063;28;20068;-64
2023/03/26 17:39:58;;;;;;;16.77;11.73;;;;;;;;;;10292299;28;20088;-65
2023/03/26 17:44:58;;;;;;;35.78;23.05;;;;;;;;;;10257968;28;20502;-65
2023/03/26 17:49:59;;;;;;;21.55;12.68;;;;;;;;;;10283192;28;20071;-62
2023/03/26 17:54:57;;;;;;;21.02;18.80;;;;;;;;;;10285177;28;20498;-65
2023/03/26 17:59:57;;;;;;;8.02;4.65;;;;;;;;;;10287154;28;20079;-66
2023/03/26 18:04:57;;;;;;;7.60;3.88;;;;;;;;;;10287331;28;20082;-64
2023/03/26 18:10:08;;;;;;;22.27;9.18;;;;;;;;;;10286130;28;20071;-65
2023/03/26 18:15:19;;;;;;;14.75;7.55;;;;;;;;;;10284585;28;20065;-64
2023/03/26 18:20:23;;;;;;;4.40;2.70;;;;;;;;;;10290395;28;20073;-64
2023/03/26 18:25:23;;;;;;;6.07;2.37;;;;;;;;;;10287350;28;20072;-65
2023/03/26 18:30:24;;;;;;;9.23;3.47;;;;;;;;;;10286386;28;20347;-66
2023/03/26 18:35:25;;;;;;;4.03;2.75;;;;;;;;;;10282935;28;20065;-66
2023/03/26 18:40:24;;;;;;;3.13;2.40;;;;;;;;;;10283924;28;20087;-66
2023/03/26 18:45:25;;;;;;;7.68;3.83;;;;;;;;;;10291681;28;20552;-64
2023/03/26 18:50:26;;;;;;;8.50;5.20;;;;;;;;;;10282452;28;20060;-65
2023/03/26 18:55:26;;;;;;;8.73;5.75;;;;;;;;;;10280837;28;20065;-66
2023/03/26 19:00:26;;;;;;;4.30;3.33;;;;;;;;;;10286714;28;20060;-65
2023/03/26 19:05:27;;;;;;;3.90;3.10;;;;;;;;;;10284483;28;20385;-64
2023/03/26 19:10:26;;;;;;;3.17;2.63;;;;;;;;;;10285801;28;20080;-65
2023/03/26 19:15:25;;;;;;;2.42;2.22;;;;;;;;;;10288771;28;20147;-64
2023/03/26 19:20:26;;;;;;;3.78;2.08;;;;;;;;;;10289457;28;20072;-66
2023/03/26 19:25:28;;;;;;;1.88;1.70;;;;;;;;;;10289584;28;20064;-66
2023/03/26 19:30:29;;;;;;;3.55;2.72;;;;;;;;;;10288293;28;20078;-65
2023/03/26 19:35:27;;;;;;;17.08;11.73;;;;;;;;;;10288697;28;20509;-66
2023/03/26 19:40:28;;;;;;;10.00;6.25;;;;;;;;;;10289867;28;20088;-65
2023/03/26 19:45:27;;;;;;;9.15;6.55;;;;;;;;;;10299228;28;20581;-65
2023/03/26 19:50:26;;;;;;;4.93;3.70;;;;;;;;;;10296014;28;20075;-66
2023/03/26 19:55:24;;;;;;;4.15;3.80;;;;;;;;;;10289921;28;20072;-65
2023/03/26 20:00:24;;;;;;;4.95;4.00;;;;;;;;;;10291936;28;20619;-66
2023/03/26 20:05:24;;;;;;;5.28;3.45;;;;;;;;;;10287880;28;20061;-66
2023/03/26 20:10:22;;;;;;;2.92;2.47;;;;;;;;;;10287522;28;20080;-65
2023/03/26 20:15:22;;;;;;;4.60;2.80;;;;;;;;;;10291629;28;20072;-65
2023/03/26 20:20:23;;;;;;;8.52;5.53;;;;;;;;;;10292132;28;20568;-64
2023/03/26 20:25:23;;;;;;;16.58;14.98;;;;;;;;;;10294026;28;20079;-65
2023/03/26 20:30:23;;;;;;;6.10;4.82;;;;;;;;;;10295212;28;20501;-66
2023/03/26 20:35:36;;;;;;;3.33;2.45;;;;;;;;;;10293368;28;20080;-66
2023/03/26 20:40:34;;;;;;;3.22;1.80;;;;;;;;;;10291803;28;20076;-66
2023/03/26 20:45:33;;;;;;;3.15;1.90;;;;;;;;;;10290097;28;20498;-64
2023/03/26 20:50:31;;;;;;;3.13;1.75;;;;;;;;;;10291813;28;20088;-65
2023/03/26 20:55:35;;;;;;;2.80;2.30;;;;;;;;;;10288969;28;20071;-64
2023/03/26 21:00:33;;;;;;;2.95;1.67;;;;;;;;;;10292656;28;20080;-65
2023/03/26 21:05:31;;;;;;;2.90;2.30;;;;;;;;;;10292829;28;20068;-64
2023/03/26 21:10:30;;;;;;;4.97;1.83;;;;;;;;;;10288783;28;20076;-65
2023/03/26 21:15:30;;;;;;;4.72;2.13;;;;;;;;;;10289784;28;20155;-65
2023/03/26 21:20:31;;;;;;;1.88;1.65;;;;;;;;;;10289935;28;20069;-65
2023/03/26 21:25:32;;;;;;;1.65;1.48;;;;;;;;;;10286724;28;20080;-66
2023/03/26 21:30:33;;;;;;;4.28;1.58;;;;;;;;;;10291092;28;20182;-65
2023/03/26 21:35:33;;;;;;;5.05;2.00;;;;;;;;;;10290580;28;20088;-65
2023/03/26 21:40:32;;;;;;;1.95;1.40;;;;;;;;;;10289658;28;20091;-65
2023/03/26 21:45:30;;;;;;;2.78;2.08;;;;;;;;;;10286551;28;20068;-65
2023/03/26 21:50:30;;;;;;;2.90;1.80;;;;;;;;;;10292766;28;20072;-65
2023/03/26 21:55:29;;;;;;;2.20;1.52;;;;;;;;;;10289984;28;20508;-65
2023/03/26 22:00:29;;;;;;;1.70;1.52;;;;;;;;;;10290530;28;20084;-65
2023/03/26 22:05:43;;;;;;;3.70;2.13;;;;;;;;;;10292276;28;20091;-65
2023/03/26 22:10:42;;;;;;;2.70;1.90;;;;;;;;;;10292171;28;20068;-66
2023/03/26 22:15:40;;;;;;;2.35;2.00;;;;;;;;;;10291487;28;20068;-65
2023/03/26 22:20:38;;;;;;;2.35;1.70;;;;;;;;;;10290141;28;20079;-65
2023/03/26 22:25:38;;;;;;;4.05;1.73;;;;;;;;;;10288720;28;20072;-65
2023/03/26 22:30:36;;;;;;;2.25;1.80;;;;;;;;;;10288742;28;20076;-64
2023/03/26 22:35:34;;;;;;;2.55;1.50;;;;;;;;;;10287206;28;20461;-65
2023/03/26 22:40:33;;;;;;;7.05;2.03;;;;;;;;;;10288465;28;20088;-64
2023/03/26 22:45:32;;;;;;;3.92;1.50;;;;;;;;;;10289454;28;20095;-65
2023/03/26 22:50:31;;;;;;;1.50;1.40;;;;;;;;;;10288073;28;20072;-65
2023/03/26 22:55:29;;;;;;;1.65;1.50;;;;;;;;;;10298120;28;20076;-65
2023/03/26 23:00:27;;;;;;;1.73;1.63;;;;;;;;;;10303256;28;20100;-66
2023/03/26 23:05:27;;;;;;;2.22;1.50;;;;;;;;;;10304158;28;20073;-65
2023/03/26 23:10:25;;;;;;;2.80;1.98;;;;;;;;;;10305351;28;20076;-65
2023/03/26 23:15:24;;;;;;;1.65;1.50;;;;;;;;;;10302290;28;20067;-65
2023/03/26 23:20:22;;;;;;;2.00;1.80;;;;;;;;;;10300647;28;20064;-65
2023/03/26 23:25:22;;;;;;;2.40;2.20;;;;;;;;;;10301242;28;20060;-65
2023/03/26 23:30:20;;;;;;;2.33;2.08;;;;;;;;;;10299412;28;20076;-64
2023/03/26 23:35:18;;;;;;;3.60;2.20;;;;;;;;;;10301347;28;20064;-65
2023/03/26 23:40:17;;;;;;;2.03;1.75;;;;;;;;;;10301531;28;20080;-65
2023/03/26 23:45:17;;;;;;;3.53;2.40;;;;;;;;;;10297465;28;20080;-65
2023/03/26 23:50:15;;;;;;;2.17;1.98;;;;;;;;;;10304488;28;20060;-65
2023/03/26 23:55:13;;;;;;;3.95;2.00;;;;;;;;;;10299292;28;20076;-65
